Schedule Details

Flight Number: ASXVIP11
Departure: Genua (LIMJ) at 20:00
Arrival: Gdansk im. Lecha Walesy (EPGD) at 22:30
Route: GEN M985 OSKOR DCT NESTI T102 IVKAL/N0443F390 T102 NINUR DCT KONIN UM726 MAH UL132 RENKI UL132 BODLA Z491 VAVUN DCT GOBRA L730 KOSEX

Weather Information
LIMJ 180650Z 06004KT 010V090 9999 FEW050 07/02 Q1016
EPGD 180630Z 29002KT 8000 SCT041 M03/M04 Q1026

Schedule Frequency

Route Map